Huvudsida
METAR-TAF:

METAR-TAF

Flygplatser :

Kristiansands flygplats. Kjevik

Kristiansand, Norge

latitud: 58-12N, longitud: 008-05E, höjd: 1 m

Aktuellt väderrapport

Denna rapport gjordes för 33 minuter sedan, klockan 05:20 UTC
Vind 3 kt från ost/nordost
Temperatur 4°C
Fuktighet 100%
Tryck 1025 hPa
Sikt: 1400 m
Mulet på en höjd av 200 ft
fuktdis

METAR: ENCN 050520Z 07003KT 1400 R03/P2000N R21/P2000N BR OVC002 04/04 Q1025

Tid: 07:53 (05:53 UTC)

Väderprognos

Denna rapport gjordes för 53 minuter sedan, klockan 05:00 UTC
Prognos gäller från 05 kl. 06 UTC till 05 kl. 15 UTC
Vind 5 kt från ost/nordost
Sikt 10 km eller mer
Få moln på en höjd av 500 ft
Temporärt
från 05 kl. 06 UTC till 05 kl. 08 UTC
Sikt: 0500 m
på en höjd av 100 ft
dimma
Blir
från 05 kl. 08 UTC till 05 kl. 10 UTC
Vind 10 kt från syd/sydväst

TAF: ENCN 050500Z 0506/0515 06005KT 9999 FEW005 TEMPO 0506/0508 0500 FG VV001 BECMG 0508/0510 20010KT

Aktuella väderrapporter och prognoser från 4000 flygplatser (METAR- och TAF-rapporter).

De tillgängliga stationerna syns som gula och röda prickar på kartan.

För musen över prickarna för att se namnen på stationerna.

Klicka sedan för att få väderrapporter och prognoser.

För att ändra kartan: Klicka på de gröna knapparna med ett svart kors på för att zooma in; den gröna knappen med ett streck på för att zooma ut; eller på de gröna pilarna för angränsande kartor.


METAR-TAF: